createdAt,value
2018-03-18T00:00:16.692Z,67.10
2018-03-18T00:02:49.219Z,66.80
2018-03-18T00:05:16.795Z,66.80
2018-03-18T00:07:44.350Z,67.00
2018-03-18T00:10:11.843Z,67.10
2018-03-18T00:12:39.387Z,66.60
2018-03-18T00:15:07.989Z,67.20
2018-03-18T00:17:35.489Z,67.20
2018-03-18T00:20:03.012Z,66.70
2018-03-18T00:22:30.527Z,67.00
2018-03-18T00:24:58.014Z,67.10
2018-03-18T00:27:25.903Z,66.70
2018-03-18T00:29:53.395Z,66.70
2018-03-18T00:32:20.934Z,66.60
2018-03-18T00:34:48.385Z,67.00
2018-03-18T00:37:15.878Z,67.20
2018-03-18T00:39:43.388Z,67.30
2018-03-18T00:42:10.873Z,67.30
2018-03-18T00:44:38.372Z,67.40
2018-03-18T00:47:06.264Z,67.50
2018-03-18T00:49:34.626Z,67.50
2018-03-18T00:52:02.143Z,67.50
2018-03-18T00:54:29.643Z,67.70
2018-03-18T00:56:57.133Z,67.20
2018-03-18T00:59:24.637Z,67.60
2018-03-18T01:01:52.548Z,68.00
2018-03-18T01:04:20.029Z,68.00
2018-03-18T01:06:47.515Z,68.20
2018-03-18T01:09:15.415Z,67.90
2018-03-18T01:11:42.918Z,67.90
2018-03-18T01:14:10.399Z,68.10
2018-03-18T01:16:38.290Z,68.30
2018-03-18T01:19:05.815Z,68.30
2018-03-18T01:21:33.279Z,68.00
2018-03-18T01:24:01.163Z,68.20
2018-03-18T01:26:28.663Z,68.20
2018-03-18T01:28:56.152Z,68.50
2018-03-18T01:31:24.047Z,68.30
2018-03-18T01:33:51.527Z,68.30
2018-03-18T01:36:19.007Z,68.10
2018-03-18T01:38:46.503Z,68.50
2018-03-18T01:41:14.387Z,68.40
2018-03-18T01:43:41.888Z,68.40
2018-03-18T01:46:09.375Z,68.70
2018-03-18T01:48:37.263Z,68.70
2018-03-18T01:51:05.155Z,68.40
2018-03-18T01:53:32.644Z,68.40
2018-03-18T01:56:00.132Z,68.50
2018-03-18T01:58:28.012Z,68.80
2018-03-18T02:00:55.499Z,68.80
2018-03-18T02:03:23.005Z,68.00
2018-03-18T02:05:50.894Z,68.10
2018-03-18T02:08:18.384Z,68.00
2018-03-18T02:10:45.882Z,68.20
2018-03-18T02:13:13.776Z,68.10
2018-03-18T02:15:41.265Z,68.10
2018-03-18T02:18:08.761Z,68.10
2018-03-18T02:20:36.648Z,68.00
2018-03-18T02:23:04.523Z,67.70
2018-03-18T02:25:32.011Z,67.70
2018-03-18T02:27:59.491Z,67.90
2018-03-18T02:30:27.007Z,67.90
2018-03-18T02:32:54.499Z,67.70
2018-03-18T02:35:21.984Z,67.30
2018-03-18T02:37:49.883Z,67.00
2018-03-18T02:40:17.371Z,66.90
2018-03-18T02:42:44.855Z,66.80
2018-03-18T02:45:12.361Z,67.10
2018-03-18T02:47:39.846Z,66.90
2018-03-18T02:50:07.353Z,67.30
2018-03-18T02:52:34.859Z,66.90
2018-03-18T02:55:02.363Z,67.10
2018-03-18T02:57:30.244Z,67.20
2018-03-18T02:59:57.733Z,67.20
2018-03-18T03:02:25.222Z,67.50
2018-03-18T03:04:52.728Z,67.40
2018-03-18T03:07:20.216Z,67.00
2018-03-18T03:09:47.703Z,67.00
2018-03-18T03:12:15.591Z,67.40
2018-03-18T03:14:43.083Z,67.40
2018-03-18T03:17:10.578Z,67.00
2018-03-18T03:19:38.483Z,67.40
2018-03-18T03:22:05.970Z,67.40
2018-03-18T03:24:33.464Z,67.40
2018-03-18T03:27:01.369Z,67.40
2018-03-18T03:29:28.878Z,67.40
2018-03-18T03:31:56.466Z,67.70
2018-03-18T03:34:23.950Z,67.60
2018-03-18T03:36:51.456Z,67.70
2018-03-18T03:39:19.340Z,68.40
2018-03-18T03:41:46.861Z,68.40
2018-03-18T03:44:14.366Z,68.20
2018-03-18T03:46:41.850Z,68.30
2018-03-18T03:49:09.359Z,68.30
2018-03-18T03:51:37.244Z,68.20
2018-03-18T03:54:04.731Z,68.10
2018-03-18T03:56:32.236Z,68.40
2018-03-18T03:59:00.128Z,68.40
2018-03-18T04:01:27.619Z,68.40
2018-03-18T04:03:55.116Z,68.20
2018-03-18T04:06:23.031Z,68.20
2018-03-18T04:08:50.517Z,68.20
2018-03-18T04:11:18.105Z,68.40
2018-03-18T04:13:46.018Z,68.60
2018-03-18T04:16:13.595Z,68.60
2018-03-18T04:18:41.083Z,68.40
2018-03-18T04:21:09.001Z,68.60
2018-03-18T04:23:36.612Z,68.60
2018-03-18T04:26:04.107Z,68.40
2018-03-18T04:28:31.615Z,68.60
2018-03-18T04:30:59.522Z,68.40
2018-03-18T04:33:27.004Z,68.40
2018-03-18T04:35:54.507Z,68.30
2018-03-18T04:38:22.405Z,69.00
2018-03-18T04:40:49.892Z,69.00
2018-03-18T04:43:17.399Z,68.90
2018-03-18T04:45:45.279Z,68.70
2018-03-18T04:48:12.768Z,68.70
2018-03-18T04:50:40.263Z,68.90
2018-03-18T04:53:07.763Z,69.00
2018-03-18T04:55:35.263Z,68.90
2018-03-18T04:58:02.743Z,68.90
2018-03-18T05:00:30.637Z,69.10
2018-03-18T05:02:58.146Z,69.10
2018-03-18T05:05:25.649Z,68.90
2018-03-18T05:07:53.153Z,68.90
2018-03-18T05:10:21.063Z,68.80
2018-03-18T05:12:48.567Z,68.80
2018-03-18T05:15:16.062Z,68.70
2018-03-18T05:17:43.959Z,69.20
2018-03-18T05:20:11.456Z,69.20
2018-03-18T05:22:38.933Z,69.00
2018-03-18T05:25:06.836Z,68.80
2018-03-18T05:27:34.326Z,68.80
2018-03-18T05:30:01.812Z,68.70
2018-03-18T05:32:29.716Z,68.50
2018-03-18T05:34:57.214Z,68.50
2018-03-18T05:37:24.700Z,68.80
2018-03-18T05:39:52.592Z,68.80
2018-03-18T05:42:20.083Z,68.80
2018-03-18T05:44:47.580Z,69.10
2018-03-18T05:47:15.083Z,69.10
2018-03-18T05:49:42.590Z,68.80
2018-03-18T05:52:10.470Z,68.70
2018-03-18T05:54:38.347Z,69.00
2018-03-18T05:57:05.851Z,69.00
2018-03-18T05:59:33.341Z,68.80
2018-03-18T06:02:01.231Z,68.50
2018-03-18T06:04:28.727Z,68.60
2018-03-18T06:06:56.244Z,68.70
2018-03-18T06:09:23.747Z,68.70
2018-03-18T06:11:51.234Z,68.60
2018-03-18T06:14:19.116Z,68.70
2018-03-18T06:16:46.611Z,68.70
2018-03-18T06:19:14.103Z,68.80
2018-03-18T06:21:41.626Z,68.60
2018-03-18T06:24:09.168Z,68.50
2018-03-18T06:26:36.692Z,68.40
2018-03-18T06:29:04.586Z,68.40
2018-03-18T06:31:32.110Z,68.40
2018-03-18T06:33:59.588Z,68.10
2018-03-18T06:36:27.121Z,67.90
2018-03-18T06:38:55.028Z,67.60
2018-03-18T06:41:22.551Z,67.60
2018-03-18T06:43:50.092Z,67.70
2018-03-18T06:46:17.637Z,67.40
2018-03-18T06:48:45.177Z,67.10
2018-03-18T06:51:12.701Z,67.30
2018-03-18T06:53:40.216Z,67.40
2018-03-18T06:56:08.123Z,67.00
2018-03-18T06:58:35.637Z,67.00
2018-03-18T07:01:03.136Z,66.70
2018-03-18T07:03:31.117Z,66.60
2018-03-18T07:05:59.442Z,65.80
2018-03-18T07:08:27.010Z,64.80
2018-03-18T07:10:54.538Z,64.50
2018-03-18T07:13:22.979Z,64.90
2018-03-18T07:15:50.473Z,65.50
2018-03-18T07:18:17.967Z,65.60
2018-03-18T07:20:45.461Z,65.90
2018-03-18T07:23:13.131Z,66.10
2018-03-18T07:25:40.663Z,64.70
2018-03-18T07:28:08.151Z,64.20
2018-03-18T07:30:35.636Z,62.70
2018-03-18T07:33:03.194Z,62.00
2018-03-18T07:35:30.698Z,61.90
2018-03-18T07:37:58.197Z,62.40
2018-03-18T07:40:25.720Z,63.30
2018-03-18T07:42:53.224Z,64.20
2018-03-18T07:45:20.868Z,64.60
2018-03-18T07:47:48.367Z,64.80
2018-03-18T07:50:16.294Z,65.40
2018-03-18T07:52:43.783Z,65.40
2018-03-18T07:55:11.286Z,65.00
2018-03-18T07:57:38.835Z,65.40
2018-03-18T08:00:06.364Z,65.30
2018-03-18T08:02:34.266Z,64.70
2018-03-18T08:05:02.570Z,64.70
2018-03-18T08:07:31.402Z,64.40
2018-03-18T08:09:58.855Z,65.00
2018-03-18T08:12:26.741Z,64.60
2018-03-18T08:14:54.379Z,64.70
2018-03-18T08:17:21.907Z,64.00
2018-03-18T08:19:49.391Z,63.90
2018-03-18T08:22:17.411Z,63.20
2018-03-18T08:24:44.926Z,63.20
2018-03-18T08:27:12.881Z,61.50
2018-03-18T08:29:41.104Z,62.00
2018-03-18T08:32:08.612Z,62.00
2018-03-18T08:34:36.108Z,61.60
2018-03-18T08:37:03.670Z,61.20
2018-03-18T08:39:31.243Z,61.00
2018-03-18T08:41:58.752Z,60.00
2018-03-18T08:44:26.702Z,60.90
2018-03-18T08:46:54.200Z,60.90
2018-03-18T08:49:21.729Z,60.50
2018-03-18T08:51:49.634Z,61.10
2018-03-18T08:54:17.173Z,61.10
2018-03-18T08:56:44.735Z,61.20
2018-03-18T08:59:12.252Z,60.90
2018-03-18T09:01:39.860Z,60.80
2018-03-18T09:04:07.403Z,60.30
2018-03-18T09:06:34.976Z,60.30
2018-03-18T09:09:02.903Z,59.50
2018-03-18T09:11:30.432Z,60.00
2018-03-18T09:13:58.037Z,59.90
2018-03-18T09:16:25.955Z,60.50
2018-03-18T09:18:53.453Z,60.50
2018-03-18T09:21:22.654Z,60.70
2018-03-18T09:23:50.191Z,61.30
2018-03-18T09:26:17.774Z,60.40
2018-03-18T09:28:45.680Z,60.60
2018-03-18T09:31:13.163Z,60.50
2018-03-18T09:33:40.679Z,60.10
2018-03-18T09:36:08.179Z,59.70
2018-03-18T09:38:35.684Z,59.20
2018-03-18T09:41:03.609Z,58.00
2018-03-18T09:43:31.140Z,58.00
2018-03-18T09:45:58.619Z,57.90
2018-03-18T09:48:26.180Z,57.80
2018-03-18T09:50:53.758Z,58.30
2018-03-18T09:53:21.306Z,58.30
2018-03-18T09:55:49.168Z,58.30
2018-03-18T09:58:16.682Z,58.30
2018-03-18T10:00:44.188Z,59.10
2018-03-18T10:03:11.717Z,59.40
2018-03-18T10:05:39.250Z,59.60
2018-03-18T10:08:07.624Z,59.30
2018-03-18T10:10:35.150Z,59.10
2018-03-18T10:13:02.677Z,59.30
2018-03-18T10:15:30.184Z,59.40
2018-03-18T10:17:58.135Z,59.60
2018-03-18T10:20:25.628Z,59.60
2018-03-18T10:22:53.151Z,59.30
2018-03-18T10:25:21.052Z,58.90
2018-03-18T10:27:48.558Z,58.90
2018-03-18T10:30:16.065Z,58.70
2018-03-18T10:32:43.578Z,57.90
2018-03-18T10:35:11.514Z,57.70
2018-03-18T10:37:39.219Z,57.70
2018-03-18T10:40:06.713Z,57.20
2018-03-18T10:42:34.651Z,56.30
2018-03-18T10:45:02.545Z,56.20
2018-03-18T10:47:30.552Z,56.20
2018-03-18T10:49:58.159Z,56.70
2018-03-18T10:52:25.662Z,56.60
2018-03-18T10:54:53.232Z,56.00
2018-03-18T10:57:20.741Z,55.80
2018-03-18T10:59:48.258Z,55.70
2018-03-18T11:02:17.585Z,56.00
2018-03-18T11:04:45.076Z,55.30
2018-03-18T11:07:12.567Z,55.90
2018-03-18T11:09:40.048Z,55.50
2018-03-18T11:12:07.601Z,54.60
2018-03-18T11:14:35.183Z,54.50
2018-03-18T11:17:02.669Z,55.10
2018-03-18T11:19:30.157Z,55.60
2018-03-18T11:21:57.674Z,54.80
2018-03-18T11:24:25.366Z,54.90
2018-03-18T11:26:52.859Z,54.80
2018-03-18T11:29:20.760Z,54.90
2018-03-18T11:31:48.283Z,54.90
2018-03-18T11:34:23.911Z,55.00
2018-03-18T11:36:51.828Z,54.60
2018-03-18T11:39:19.332Z,54.60
2018-03-18T11:41:46.818Z,54.30
2018-03-18T11:44:18.052Z,53.60
2018-03-18T11:46:45.952Z,54.10
2018-03-18T11:49:13.451Z,54.10
2018-03-18T11:51:40.940Z,53.80
2018-03-18T11:54:08.831Z,54.20
2018-03-18T11:56:36.327Z,54.20
2018-03-18T11:59:03.822Z,53.80
2018-03-18T12:01:31.324Z,53.90
2018-03-18T12:03:58.823Z,53.10
2018-03-18T12:06:26.718Z,53.00
2018-03-18T12:09:00.331Z,53.00
2018-03-18T12:11:32.007Z,52.60
2018-03-18T12:13:59.504Z,53.10
2018-03-18T12:16:27.392Z,53.40
2018-03-18T12:18:54.875Z,53.40
2018-03-18T12:21:22.375Z,53.00
2018-03-18T12:23:50.280Z,52.70
2018-03-18T12:26:17.811Z,52.70
2018-03-18T12:28:45.303Z,53.20
2018-03-18T12:31:12.803Z,53.10
2018-03-18T12:33:40.291Z,53.80
2018-03-18T12:36:07.787Z,53.40
2018-03-18T12:38:35.282Z,53.90
2018-03-18T12:41:02.764Z,54.70
2018-03-18T12:43:30.318Z,54.10
2018-03-18T12:45:58.216Z,53.40
2018-03-18T12:48:25.715Z,53.50
2018-03-18T12:50:53.203Z,53.60
2018-03-18T12:53:21.103Z,53.70
2018-03-18T12:55:48.644Z,53.70
2018-03-18T12:58:16.151Z,52.50
2018-03-18T13:00:43.635Z,52.80
2018-03-18T13:03:11.563Z,53.60
2018-03-18T13:05:39.167Z,53.60
2018-03-18T13:08:07.091Z,53.60
2018-03-18T13:10:34.584Z,53.60
2018-03-18T13:13:02.471Z,52.60
2018-03-18T13:15:29.972Z,52.70
2018-03-18T13:17:57.483Z,52.50
2018-03-18T13:20:25.064Z,52.40
2018-03-18T13:22:52.615Z,52.30
2018-03-18T13:25:20.118Z,51.80
2018-03-18T13:27:47.628Z,49.80
2018-03-18T13:30:15.118Z,50.20
2018-03-18T13:32:42.653Z,50.20
2018-03-18T13:35:10.173Z,50.70
2018-03-18T13:37:38.067Z,51.90
2018-03-18T13:40:05.588Z,51.90
2018-03-18T13:42:33.160Z,50.90
2018-03-18T13:45:01.099Z,50.60
2018-03-18T13:47:28.587Z,50.60
2018-03-18T13:49:56.095Z,50.60
2018-03-18T13:52:23.671Z,50.70
2018-03-18T13:54:51.184Z,50.70
2018-03-18T13:57:18.688Z,51.00
2018-03-18T13:59:46.187Z,51.00
2018-03-18T14:02:13.710Z,51.40
2018-03-18T14:04:41.200Z,52.00
2018-03-18T14:07:08.697Z,51.90
2018-03-18T14:09:36.187Z,52.90
2018-03-18T14:12:04.087Z,52.20
2018-03-18T14:14:31.999Z,52.80
2018-03-18T14:16:59.476Z,52.80
2018-03-18T14:19:26.972Z,52.50
2018-03-18T14:21:54.532Z,52.50
2018-03-18T14:24:22.136Z,52.90
2018-03-18T14:26:49.639Z,53.00
2018-03-18T14:29:17.147Z,53.20
2018-03-18T14:31:44.632Z,53.60
2018-03-18T14:34:12.511Z,54.20
2018-03-18T14:36:40.006Z,54.20
2018-03-18T14:39:07.549Z,54.50
2018-03-18T14:41:35.038Z,54.60
2018-03-18T14:44:02.527Z,55.10
2018-03-18T14:46:30.425Z,55.80
2018-03-18T14:48:57.924Z,55.70
2018-03-18T14:51:25.415Z,55.40
2018-03-18T14:53:53.312Z,55.70
2018-03-18T14:56:20.803Z,55.70
2018-03-18T14:58:48.302Z,55.80
2018-03-18T15:01:16.212Z,55.90
2018-03-18T15:03:43.735Z,55.90
2018-03-18T15:06:11.231Z,55.80
2018-03-18T15:08:38.741Z,55.70
2018-03-18T15:11:06.291Z,55.20
2018-03-18T15:13:34.192Z,55.70
2018-03-18T15:16:01.707Z,55.70
2018-03-18T15:18:29.612Z,55.90
2018-03-18T15:20:57.140Z,55.90
2018-03-18T15:23:25.043Z,56.20
2018-03-18T15:25:52.567Z,56.20
2018-03-18T15:28:20.468Z,56.10
2018-03-18T15:30:47.984Z,56.10
2018-03-18T15:33:15.887Z,56.70
2018-03-18T15:35:43.371Z,56.70
2018-03-18T15:38:10.884Z,56.30
2018-03-18T15:40:38.384Z,56.20
2018-03-18T15:43:05.880Z,56.10
2018-03-18T15:45:33.860Z,56.00
2018-03-18T15:48:01.430Z,56.00
2018-03-18T15:50:28.960Z,55.90
2018-03-18T15:52:56.474Z,55.50
2018-03-18T15:55:23.977Z,55.30
2018-03-18T15:57:51.882Z,55.80
2018-03-18T16:00:19.576Z,55.80
2018-03-18T16:02:47.511Z,55.10
2018-03-18T16:05:15.006Z,55.10
2018-03-18T16:07:42.503Z,55.30
2018-03-18T16:10:10.007Z,55.70
2018-03-18T16:12:37.519Z,55.90
2018-03-18T16:15:05.014Z,55.80
2018-03-18T16:17:32.520Z,56.10
2018-03-18T16:20:00.025Z,55.80
2018-03-18T16:22:27.535Z,55.40
2018-03-18T16:24:55.436Z,55.20
2018-03-18T16:27:22.936Z,55.20
2018-03-18T16:30:02.326Z,54.70
2018-03-18T16:32:30.239Z,55.60
2018-03-18T16:34:57.733Z,55.60
2018-03-18T16:37:25.236Z,55.00
2018-03-18T16:39:52.736Z,55.00
2018-03-18T16:42:20.272Z,55.40
2018-03-18T16:44:48.188Z,55.30
2018-03-18T16:47:15.695Z,55.30
2018-03-18T16:49:43.218Z,55.50
2018-03-18T16:52:12.764Z,55.10
2018-03-18T16:54:40.278Z,55.10
2018-03-18T16:57:07.783Z,55.20
2018-03-18T16:59:35.696Z,55.50
2018-03-18T17:02:03.183Z,55.50
2018-03-18T17:04:30.701Z,55.80
2018-03-18T17:06:58.198Z,56.10
2018-03-18T17:09:25.791Z,56.20
2018-03-18T17:11:53.792Z,55.90
2018-03-18T17:14:21.332Z,55.90
2018-03-18T17:16:48.851Z,56.30
2018-03-18T17:19:17.336Z,56.50
2018-03-18T17:21:44.852Z,56.80
2018-03-18T17:24:12.581Z,56.70
2018-03-18T17:26:40.167Z,57.00
2018-03-18T17:29:07.707Z,56.80
2018-03-18T17:31:35.945Z,56.50
2018-03-18T17:34:03.624Z,56.60
2018-03-18T17:36:31.644Z,56.80
2018-03-18T17:39:01.579Z,56.80
2018-03-18T17:41:30.068Z,56.90
2018-03-18T17:43:57.674Z,57.30
2018-03-18T17:46:36.963Z,57.90
2018-03-18T17:49:16.648Z,58.10
2018-03-18T17:51:56.148Z,57.70
2018-03-18T17:54:35.388Z,57.80
2018-03-18T17:57:02.896Z,58.00
2018-03-18T17:59:30.446Z,58.30
2018-03-18T18:01:58.063Z,58.50
2018-03-18T18:04:25.959Z,58.70
2018-03-18T18:06:53.508Z,58.70
2018-03-18T18:09:21.408Z,57.90
2018-03-18T18:11:48.915Z,57.90
2018-03-18T18:14:16.436Z,58.00
2018-03-18T18:16:43.983Z,58.10
2018-03-18T18:19:11.520Z,58.00
2018-03-18T18:21:39.017Z,58.30
2018-03-18T18:24:06.633Z,58.30
2018-03-18T18:26:34.165Z,58.40
2018-03-18T18:29:01.704Z,58.30
2018-03-18T18:31:29.221Z,58.40
2018-03-18T18:33:56.903Z,58.30
2018-03-18T18:36:24.499Z,58.10
2018-03-18T18:38:52.397Z,57.40
2018-03-18T18:41:19.904Z,57.40
2018-03-18T18:43:47.418Z,56.40
2018-03-18T18:46:15.926Z,56.70
2018-03-18T18:48:43.421Z,56.80
2018-03-18T18:51:12.429Z,56.40
2018-03-18T18:53:39.966Z,56.40
2018-03-18T18:56:07.593Z,56.00
2018-03-18T18:58:35.146Z,56.00
2018-03-18T19:01:02.721Z,55.90
2018-03-18T19:03:30.226Z,56.10
2018-03-18T19:05:57.737Z,56.40
2018-03-18T19:08:25.235Z,56.30
2018-03-18T19:10:52.764Z,56.20
2018-03-18T19:13:20.295Z,56.40
2018-03-18T19:15:47.800Z,56.40
2018-03-18T19:18:15.707Z,56.20
2018-03-18T19:20:43.244Z,56.20
2018-03-18T19:23:10.748Z,56.20
2018-03-18T19:25:38.255Z,56.10
2018-03-18T19:28:05.765Z,56.40
2018-03-18T19:30:33.313Z,56.30
2018-03-18T19:33:00.833Z,56.70
2018-03-18T19:35:28.339Z,56.40
2018-03-18T19:37:57.878Z,56.60
2018-03-18T19:40:25.809Z,56.70
2018-03-18T19:42:53.309Z,56.80
2018-03-18T19:45:20.848Z,56.80
2018-03-18T19:47:48.756Z,57.10
2018-03-18T19:50:16.279Z,57.10
2018-03-18T19:52:44.176Z,57.00
2018-03-18T19:55:12.107Z,57.00
2018-03-18T19:57:39.605Z,56.90
2018-03-18T20:00:07.112Z,57.10
2018-03-18T20:02:35.044Z,57.10
2018-03-18T20:05:02.611Z,57.10
2018-03-18T20:07:30.593Z,56.90
2018-03-18T20:09:58.599Z,56.60
2018-03-18T20:12:27.377Z,56.80
2018-03-18T20:14:55.300Z,56.70
2018-03-18T20:17:22.797Z,56.70
2018-03-18T20:19:50.293Z,56.60
2018-03-18T20:22:17.808Z,56.70
2018-03-18T20:24:45.725Z,56.60
2018-03-18T20:27:13.224Z,56.60
2018-03-18T20:29:40.820Z,56.60
2018-03-18T20:32:08.337Z,56.50
2018-03-18T20:34:35.854Z,56.70
2018-03-18T20:37:03.344Z,56.90
2018-03-18T20:39:30.836Z,57.20
2018-03-18T20:41:58.720Z,56.90
2018-03-18T20:44:26.227Z,56.90
2018-03-18T20:46:53.750Z,56.70
2018-03-18T20:49:21.320Z,57.20
2018-03-18T20:51:48.833Z,56.80
2018-03-18T20:54:16.727Z,57.20
2018-03-18T20:56:44.272Z,57.20
2018-03-18T20:59:12.555Z,57.20
2018-03-18T21:01:40.051Z,57.00
2018-03-18T21:04:07.548Z,56.80
2018-03-18T21:06:35.454Z,56.60
2018-03-18T21:09:02.968Z,56.60
2018-03-18T21:11:30.484Z,57.00
2018-03-18T21:13:58.023Z,56.90
2018-03-18T21:16:25.516Z,56.90
2018-03-18T21:18:53.003Z,56.90
2018-03-18T21:21:20.905Z,57.50
2018-03-18T21:23:48.464Z,57.50
2018-03-18T21:26:15.958Z,57.50
2018-03-18T21:28:43.514Z,57.60
2018-03-18T21:31:11.019Z,57.60
2018-03-18T21:33:38.748Z,57.60
2018-03-18T21:36:06.686Z,57.60
2018-03-18T21:38:34.187Z,57.60
2018-03-18T21:41:02.079Z,57.90
2018-03-18T21:43:29.574Z,57.90
2018-03-18T21:45:57.055Z,57.80
2018-03-18T21:48:24.546Z,58.00
2018-03-18T21:50:52.047Z,57.90
2018-03-18T21:53:19.614Z,58.10
2018-03-18T21:55:47.107Z,57.90
2018-03-18T21:58:14.623Z,57.90
2018-03-18T22:00:42.127Z,57.90
2018-03-18T22:03:09.641Z,58.10
2018-03-18T22:05:37.140Z,58.20
2018-03-18T22:08:05.594Z,58.40
2018-03-18T22:10:33.121Z,58.50
2018-03-18T22:13:00.705Z,58.60
2018-03-18T22:15:28.360Z,58.80
2018-03-18T22:17:55.877Z,58.80
2018-03-18T22:20:23.411Z,58.90
2018-03-18T22:22:50.937Z,59.00
2018-03-18T22:25:18.430Z,59.10
2018-03-18T22:27:45.956Z,58.90
2018-03-18T22:30:13.765Z,59.00
2018-03-18T22:32:41.342Z,59.30
2018-03-18T22:35:08.855Z,59.50
2018-03-18T22:37:36.364Z,59.50
2018-03-18T22:40:04.840Z,59.50
2018-03-18T22:42:32.456Z,59.30
2018-03-18T22:45:00.357Z,59.80
2018-03-18T22:47:27.915Z,59.80
2018-03-18T22:49:55.443Z,59.80
2018-03-18T22:52:23.324Z,59.30
2018-03-18T22:54:50.807Z,59.40
2018-03-18T22:57:18.417Z,59.30
2018-03-18T22:59:46.465Z,59.00
2018-03-18T23:02:14.000Z,59.00
2018-03-18T23:04:41.489Z,59.10
2018-03-18T23:07:09.015Z,58.80
2018-03-18T23:09:36.541Z,59.00
2018-03-18T23:12:04.070Z,58.80
2018-03-18T23:14:31.563Z,59.10
2018-03-18T23:16:59.086Z,59.50
2018-03-18T23:19:27.001Z,59.30
2018-03-18T23:21:54.503Z,59.30
2018-03-18T23:24:22.395Z,59.50
2018-03-18T23:26:49.908Z,59.50
2018-03-18T23:29:17.423Z,59.30
2018-03-18T23:31:44.942Z,59.30
2018-03-18T23:34:12.841Z,59.00
2018-03-18T23:36:40.327Z,59.00
2018-03-18T23:39:07.826Z,59.40
2018-03-18T23:41:35.725Z,59.30
2018-03-18T23:44:05.213Z,59.30
2018-03-18T23:46:32.720Z,59.20
2018-03-18T23:49:00.279Z,59.30
2018-03-18T23:51:27.776Z,59.40
2018-03-18T23:53:55.743Z,59.50
2018-03-18T23:56:23.693Z,59.50
2018-03-18T23:58:51.220Z,59.50
